createdAt,value
2018-12-19T00:00:41.332Z,0.06
2018-12-19T00:03:21.603Z,0.05
2018-12-19T00:18:32.662Z,-0.12
2018-12-19T00:21:06.363Z,-0.12
2018-12-19T00:23:38.517Z,-0.20
2018-12-19T00:26:10.655Z,-0.19
2018-12-19T00:28:50.493Z,-0.15
2018-12-19T00:31:25.502Z,-0.19
2018-12-19T00:34:01.012Z,-0.11
2018-12-19T00:36:37.243Z,-0.15
2018-12-19T00:39:16.950Z,-0.15
2018-12-19T00:41:49.865Z,-0.14
2018-12-19T00:44:23.283Z,-0.18
2018-12-19T00:46:53.824Z,-0.22
2018-12-19T00:49:27.003Z,-0.17
2018-12-19T00:52:04.149Z,-0.11
2018-12-19T00:54:41.601Z,-0.08
2018-12-19T00:57:15.764Z,-0.08
2018-12-19T00:59:52.326Z,-0.05
2018-12-19T01:02:25.751Z,-0.12
2018-12-19T01:04:58.426Z,-0.14
2018-12-19T01:07:35.903Z,-0.11
2018-12-19T01:10:08.840Z,-0.15
2018-12-19T01:12:44.951Z,-0.09
2018-12-19T01:15:22.206Z,-0.05
2018-12-19T01:17:54.209Z,0.00
2018-12-19T01:20:27.132Z,0.02
2018-12-19T01:23:03.910Z,0.00
2018-12-19T01:50:41.664Z,0.15
2018-12-19T01:53:14.853Z,0.09
2018-12-19T01:55:48.267Z,0.06
2018-12-19T01:58:25.245Z,0.02
2018-12-19T02:00:58.393Z,-0.02
2018-12-19T02:03:30.943Z,-0.01
2018-12-19T02:06:11.979Z,0.04
2018-12-19T02:08:45.183Z,0.03
2018-12-19T02:11:18.965Z,-0.04
2018-12-19T02:13:56.223Z,-0.03
2018-12-19T02:16:29.339Z,-0.14
2018-12-19T02:19:07.505Z,-0.23
2018-12-19T02:21:40.414Z,-0.26
2018-12-19T02:24:13.392Z,-0.32
2018-12-19T02:26:44.469Z,-0.41
2018-12-19T02:29:16.718Z,-0.48
2018-12-19T02:31:49.601Z,-0.61
2018-12-19T02:34:26.135Z,-0.68
2018-12-19T02:37:00.527Z,-0.72
2018-12-19T02:39:36.072Z,-0.76
2018-12-19T02:42:06.861Z,-0.83
2018-12-19T02:44:39.475Z,-0.89
2018-12-19T02:47:12.685Z,-0.85
2018-12-19T02:49:45.370Z,-0.86
2018-12-19T02:52:17.765Z,-0.88
2018-12-19T02:54:54.246Z,-0.90
2018-12-19T02:57:27.443Z,-0.96
2018-12-19T02:59:59.741Z,-1.01
2018-12-19T03:02:36.842Z,-0.97
2018-12-19T03:05:09.966Z,-1.05
2018-12-19T03:07:42.949Z,-1.18
2018-12-19T03:10:15.592Z,-1.20
2018-12-19T03:12:49.417Z,-1.21
2018-12-19T03:15:26.188Z,-1.27
2018-12-19T03:17:59.933Z,-1.41
2018-12-19T03:20:36.331Z,-1.42
2018-12-19T03:23:14.764Z,-1.46
2018-12-19T03:25:46.972Z,-1.49
2018-12-19T03:28:23.246Z,-1.49
2018-12-19T03:30:53.630Z,-1.55
2018-12-19T03:33:28.844Z,-1.58
2018-12-19T03:36:02.601Z,-1.64
2018-12-19T03:38:35.284Z,-1.69
2018-12-19T03:41:07.504Z,-1.68
2018-12-19T03:43:40.563Z,-1.66
2018-12-19T03:46:13.430Z,-1.71
2018-12-19T03:48:51.468Z,-1.76
2018-12-19T03:51:25.521Z,-2.04
2018-12-19T03:54:02.965Z,-2.22
2018-12-19T03:56:35.201Z,-2.15
2018-12-19T03:59:06.574Z,-2.16
2018-12-19T04:01:39.433Z,-2.19
2018-12-19T04:04:17.312Z,-2.21
2018-12-19T04:06:51.945Z,-2.28
2018-12-19T04:09:26.295Z,-2.33
2018-12-19T04:11:59.708Z,-2.30
2018-12-19T04:14:32.241Z,-2.29
2018-12-19T04:17:04.501Z,-2.25
2018-12-19T04:19:38.201Z,-2.23
2018-12-19T04:22:16.683Z,-2.26
2018-12-19T04:24:49.677Z,-2.28
2018-12-19T04:27:22.796Z,-2.29
2018-12-19T04:29:56.104Z,-2.32
2018-12-19T04:32:27.464Z,-2.41
2018-12-19T04:35:00.547Z,-2.37
2018-12-19T04:37:32.976Z,-2.36
2018-12-19T04:40:09.561Z,-2.39
2018-12-19T04:42:42.103Z,-2.43
2018-12-19T04:45:19.552Z,-2.43
2018-12-19T04:47:52.680Z,-2.46
2018-12-19T04:50:25.665Z,-2.46
2018-12-19T04:52:59.577Z,-2.53
2018-12-19T04:55:36.093Z,-2.57
2018-12-19T04:58:09.253Z,-2.64
2018-12-19T05:00:42.224Z,-2.77
2018-12-19T05:03:14.411Z,-2.90
2018-12-19T05:05:51.593Z,-2.90
2018-12-19T05:08:25.023Z,-2.88
2018-12-19T05:10:57.739Z,-2.88
2018-12-19T05:13:34.149Z,-2.89
2018-12-19T05:16:12.062Z,-2.87
2018-12-19T05:18:45.192Z,-2.85
2018-12-19T05:21:17.758Z,-2.90
2018-12-19T05:23:50.964Z,-3.12
2018-12-19T05:26:23.153Z,-3.17
2018-12-19T05:28:57.912Z,-3.16
2018-12-19T05:31:34.797Z,-3.30
2018-12-19T05:34:08.819Z,-3.28
2018-12-19T05:36:43.418Z,-3.24
2018-12-19T05:39:17.768Z,-3.17
2018-12-19T05:41:48.711Z,-3.15
2018-12-19T05:44:25.139Z,-3.17
2018-12-19T05:46:58.019Z,-3.17
2018-12-19T05:49:32.622Z,-3.14
2018-12-19T05:52:05.959Z,-3.12
2018-12-19T05:54:38.504Z,-3.08
2018-12-19T05:57:11.275Z,-3.06
2018-12-19T05:59:49.193Z,-3.11
2018-12-19T06:02:22.056Z,-3.26
2018-12-19T06:04:58.553Z,-3.29
2018-12-19T06:07:31.330Z,-3.26
2018-12-19T06:10:04.735Z,-3.16
2018-12-19T06:12:41.202Z,-3.09
2018-12-19T06:15:23.371Z,-3.06
2018-12-19T06:18:03.251Z,-2.99
2018-12-19T06:20:37.807Z,-2.93
2018-12-19T06:23:20.896Z,-2.95
2018-12-19T06:25:56.036Z,-2.90
2018-12-19T06:28:29.158Z,-2.80
2018-12-19T06:31:02.180Z,-2.73
2018-12-19T06:33:34.772Z,-2.77
2018-12-19T06:36:08.270Z,-2.64
2018-12-19T06:38:41.758Z,-2.59
2018-12-19T06:41:19.987Z,-2.57
2018-12-19T06:43:54.858Z,-2.54
2018-12-19T06:46:28.469Z,-2.51
2018-12-19T06:49:03.118Z,-2.45
2018-12-19T06:51:35.508Z,-2.39
2018-12-19T06:54:08.525Z,-2.40
2018-12-19T06:56:44.995Z,-2.36
2018-12-19T06:59:23.049Z,-2.37
2018-12-19T07:01:59.111Z,-2.33
2018-12-19T07:04:36.231Z,-2.29
2018-12-19T07:07:14.539Z,-2.18
2018-12-19T07:09:52.055Z,-2.14
2018-12-19T07:12:25.660Z,-2.13
2018-12-19T07:14:59.519Z,-2.07
2018-12-19T07:17:42.906Z,-1.99
2018-12-19T07:20:16.178Z,-1.88
2018-12-19T07:22:50.954Z,-1.82
2018-12-19T07:25:23.635Z,-1.76
2018-12-19T07:28:03.534Z,-1.76
2018-12-19T07:30:39.980Z,-1.70
2018-12-19T07:33:16.163Z,-1.68
2018-12-19T07:35:50.394Z,-1.61
2018-12-19T07:38:23.827Z,-1.64
2018-12-19T07:40:56.523Z,-1.68
2018-12-19T07:43:28.774Z,-1.60
2018-12-19T07:46:03.413Z,-1.59
2018-12-19T07:48:34.358Z,-1.59
2018-12-19T07:51:11.339Z,-1.52
2018-12-19T07:53:42.823Z,-1.44
2018-12-19T07:56:16.552Z,-1.35
2018-12-19T07:58:54.800Z,-1.37
2018-12-19T08:01:31.328Z,-1.32
2018-12-19T08:04:09.103Z,-1.34
2018-12-19T08:06:49.708Z,-1.43
2018-12-19T08:09:23.602Z,-1.51
2018-12-19T08:11:58.092Z,-1.50
2018-12-19T08:14:31.056Z,-1.61
2018-12-19T08:17:07.599Z,-1.61
2018-12-19T08:19:46.381Z,-1.60
2018-12-19T08:22:24.249Z,-1.48
2018-12-19T08:24:58.161Z,-1.46
2018-12-19T08:27:30.541Z,-1.47
2018-12-19T08:30:07.328Z,-1.43
2018-12-19T08:32:46.618Z,-1.40
2018-12-19T08:35:20.514Z,-1.35
2018-12-19T08:37:55.917Z,-1.29
2018-12-19T08:40:28.977Z,-1.34
2018-12-19T08:43:02.296Z,-1.33
2018-12-19T08:45:36.780Z,-1.25
2018-12-19T08:48:09.722Z,-1.25
2018-12-19T08:50:43.958Z,-1.20
2018-12-19T08:53:16.139Z,-1.14
2018-12-19T08:55:53.698Z,-1.08
2018-12-19T08:58:25.305Z,-1.13
2018-12-19T09:01:03.425Z,-1.11
2018-12-19T09:03:36.782Z,-1.11
2018-12-19T09:06:10.860Z,-1.12
2018-12-19T09:08:44.090Z,-1.08
2018-12-19T09:11:17.512Z,-0.97
2018-12-19T09:13:49.969Z,-1.01
2018-12-19T09:16:22.003Z,-0.95
2018-12-19T09:18:55.720Z,-0.86
2018-12-19T09:21:28.887Z,-0.88
2018-12-19T09:24:01.507Z,-0.94
2018-12-19T09:26:35.089Z,-0.84
2018-12-19T09:29:07.882Z,-0.64
2018-12-19T09:31:40.892Z,-0.50
2018-12-19T09:34:17.740Z,-0.36
2018-12-19T09:36:56.211Z,-0.46
2018-12-19T09:39:30.144Z,-0.34
2018-12-19T09:42:07.451Z,-0.33
2018-12-19T09:44:45.525Z,-0.34
2018-12-19T09:47:23.140Z,-0.36
2018-12-19T09:50:01.408Z,-0.40
2018-12-19T09:52:39.540Z,-0.40
2018-12-19T09:55:12.634Z,-0.55
2018-12-19T09:57:46.291Z,-0.48
2018-12-19T10:00:28.267Z,-0.36
2018-12-19T10:03:05.058Z,-0.53
2018-12-19T10:05:42.391Z,-0.42
2018-12-19T10:08:17.083Z,-0.33
2018-12-19T10:10:53.231Z,-0.27
2018-12-19T10:13:26.897Z,-0.41
2018-12-19T10:15:57.836Z,-0.58
2018-12-19T10:18:31.324Z,-0.36
2018-12-19T10:21:04.069Z,-0.27
2018-12-19T10:23:41.549Z,-0.23
2018-12-19T10:26:19.017Z,-0.22
2018-12-19T10:28:52.185Z,-0.32
2018-12-19T10:31:26.302Z,-0.25
2018-12-19T10:33:59.163Z,-0.22
2018-12-19T10:36:38.482Z,-0.15
2018-12-19T10:39:16.906Z,-0.27
2018-12-19T10:41:50.011Z,-0.22
2018-12-19T10:44:23.621Z,-0.10
2018-12-19T10:46:56.397Z,-0.08
2018-12-19T10:49:29.781Z,-0.15
2018-12-19T10:52:02.785Z,-0.28
2018-12-19T10:54:35.968Z,-0.21
2018-12-19T10:57:06.401Z,-0.15
2018-12-19T10:59:40.462Z,-0.30
2018-12-19T11:02:18.594Z,-0.21
2018-12-19T11:04:52.312Z,-0.27
2018-12-19T11:07:31.943Z,-0.26
2018-12-19T11:10:05.829Z,-0.25
2018-12-19T11:12:39.993Z,-0.26
2018-12-19T11:15:13.169Z,-0.26
2018-12-19T11:17:46.709Z,-0.47
2018-12-19T11:20:20.762Z,-0.41
2018-12-19T11:22:54.001Z,-0.34
2018-12-19T11:25:30.475Z,-0.44
2018-12-19T11:28:06.689Z,-0.56
2018-12-19T11:30:43.828Z,-0.63
2018-12-19T11:33:21.017Z,-0.54
2018-12-19T11:35:54.502Z,-0.48
2018-12-19T11:38:28.376Z,-0.44
2018-12-19T11:41:01.560Z,-0.47
2018-12-19T11:43:39.654Z,-0.33
2018-12-19T11:46:16.854Z,-0.26
2018-12-19T11:48:49.682Z,-0.33
2018-12-19T11:51:22.768Z,-0.09
2018-12-19T11:53:59.359Z,-0.03
2018-12-19T11:56:32.063Z,-0.07
2018-12-19T11:59:05.392Z,-0.19
2018-12-19T12:01:41.565Z,-0.15
2018-12-19T12:04:15.906Z,-0.12
2018-12-19T12:06:50.316Z,-0.08
2018-12-19T12:09:23.923Z,0.21
2018-12-19T12:11:57.437Z,0.09
2018-12-19T12:14:30.962Z,0.26
2018-12-19T12:17:04.830Z,0.45
2018-12-19T12:19:35.549Z,0.52
2018-12-19T12:22:14.575Z,0.60
2018-12-19T12:24:47.717Z,0.68
2018-12-19T12:27:20.774Z,0.71
2018-12-19T12:29:54.732Z,0.53
2018-12-19T12:32:33.434Z,0.67
2018-12-19T12:35:11.549Z,0.81
2018-12-19T12:37:45.303Z,0.84
2018-12-19T12:40:22.130Z,0.78
2018-12-19T12:42:59.198Z,0.58
2018-12-19T12:45:31.815Z,0.79
2018-12-19T12:48:05.177Z,0.75
2018-12-19T12:50:37.907Z,0.70
2018-12-19T12:53:13.166Z,0.81
2018-12-19T12:55:47.178Z,0.66
2018-12-19T12:58:20.756Z,0.71
2018-12-19T13:00:57.904Z,0.87
2018-12-19T13:03:31.343Z,0.96
2018-12-19T13:06:04.384Z,1.13
2018-12-19T13:08:37.288Z,1.18
2018-12-19T13:11:10.778Z,1.16
2018-12-19T13:13:43.959Z,1.10
2018-12-19T13:16:16.919Z,0.99
2018-12-19T13:18:50.059Z,1.08
2018-12-19T13:21:23.178Z,1.06
2018-12-19T13:23:57.041Z,1.12
2018-12-19T13:26:30.116Z,1.06
2018-12-19T13:29:03.147Z,1.08
2018-12-19T13:31:39.330Z,1.10
2018-12-19T13:34:12.538Z,1.09
2018-12-19T13:36:46.422Z,1.00
2018-12-19T13:39:19.049Z,0.99
2018-12-19T13:41:50.017Z,0.75
2018-12-19T13:44:23.730Z,0.88
2018-12-19T13:47:02.060Z,0.77
2018-12-19T13:49:39.120Z,0.79
2018-12-19T13:52:15.509Z,0.71
2018-12-19T13:54:49.685Z,0.66
2018-12-19T13:57:22.839Z,0.68
2018-12-19T13:59:55.033Z,0.77
2018-12-19T14:02:28.468Z,0.74
2018-12-19T14:05:06.884Z,0.64
2018-12-19T14:07:40.788Z,0.69
2018-12-19T14:10:14.281Z,0.75
2018-12-19T14:12:51.572Z,0.87
2018-12-19T14:15:28.108Z,0.81
2018-12-19T14:18:01.253Z,0.72
2018-12-19T14:20:37.102Z,0.77
2018-12-19T14:23:14.136Z,0.84
2018-12-19T14:25:46.546Z,0.81
2018-12-19T14:31:07.765Z,0.72
2018-12-19T14:33:40.769Z,0.72
2018-12-19T14:36:18.620Z,0.67
2018-12-19T14:38:53.667Z,0.60
2018-12-19T14:41:29.289Z,0.54
2018-12-19T14:44:06.980Z,0.58
2018-12-19T14:46:44.901Z,0.61
2018-12-19T14:49:20.796Z,0.66
2018-12-19T14:51:56.074Z,0.67
2018-12-19T14:54:30.929Z,0.68
2018-12-19T14:57:07.938Z,0.59
2018-12-19T14:59:41.884Z,0.56
2018-12-19T15:02:18.907Z,0.49
2018-12-19T15:04:56.514Z,0.51
2018-12-19T15:07:28.234Z,0.50
2018-12-19T15:10:09.749Z,0.56
2018-12-19T15:12:47.126Z,0.58
2018-12-19T15:15:23.072Z,0.52
2018-12-19T15:18:00.490Z,0.49
2018-12-19T15:20:34.149Z,0.49
2018-12-19T15:23:08.900Z,0.46
2018-12-19T15:25:46.539Z,0.49
2018-12-19T15:28:21.289Z,0.49
2018-12-19T15:30:59.082Z,0.51
2018-12-19T15:33:33.017Z,0.54
2018-12-19T15:36:06.544Z,0.59
2018-12-19T15:38:39.891Z,0.54
2018-12-19T15:41:18.700Z,0.58
2018-12-19T15:43:54.709Z,0.62
2018-12-19T15:46:34.159Z,0.63
2018-12-19T15:49:12.395Z,0.62
2018-12-19T15:51:52.684Z,0.62
2018-12-19T15:54:31.723Z,0.70
2018-12-19T15:57:03.396Z,0.67
2018-12-19T15:59:35.766Z,0.66
2018-12-19T16:02:08.514Z,0.65
2018-12-19T16:04:41.870Z,0.56
2018-12-19T16:07:19.536Z,0.50
2018-12-19T16:09:57.574Z,0.43
2018-12-19T16:12:30.841Z,0.40
2018-12-19T16:15:04.973Z,0.38
2018-12-19T16:17:38.973Z,0.35
2018-12-19T16:20:16.120Z,0.38
2018-12-19T16:22:54.473Z,0.38
2018-12-19T16:25:27.127Z,0.51
2018-12-19T16:28:05.191Z,0.61
2018-12-19T16:30:35.620Z,0.65
2018-12-19T16:35:38.993Z,0.66
2018-12-19T16:38:12.083Z,0.69
2018-12-19T16:40:49.307Z,0.60
2018-12-19T16:43:22.658Z,0.54
2018-12-19T16:45:56.845Z,0.57
2018-12-19T16:48:29.824Z,0.57
2018-12-19T16:51:03.078Z,0.51
2018-12-19T16:53:36.781Z,0.45
2018-12-19T16:56:13.347Z,0.42
2018-12-19T16:58:46.525Z,0.39
2018-12-19T17:01:19.373Z,0.46
2018-12-19T17:03:54.841Z,0.45
2018-12-19T17:06:31.390Z,0.58
2018-12-19T17:09:06.595Z,0.76
2018-12-19T17:11:43.460Z,0.77
2018-12-19T17:14:20.356Z,0.77
2018-12-19T17:16:57.507Z,0.85
2018-12-19T17:19:35.092Z,1.08
2018-12-19T17:22:16.939Z,1.48
2018-12-19T17:24:47.951Z,1.53
2018-12-19T17:27:21.249Z,1.68
2018-12-19T17:29:54.153Z,1.84
2018-12-19T17:32:28.246Z,1.79
2018-12-19T17:34:59.019Z,1.66
2018-12-19T17:37:31.673Z,1.34
2018-12-19T17:40:08.241Z,1.36
2018-12-19T17:42:42.216Z,1.63
2018-12-19T17:45:15.464Z,1.71
2018-12-19T17:47:48.790Z,1.74
2018-12-19T17:50:27.307Z,1.75
2018-12-19T17:52:59.926Z,1.73
2018-12-19T17:55:32.819Z,1.65
2018-12-19T17:58:06.041Z,1.58
2018-12-19T18:00:39.496Z,1.43
2018-12-19T18:03:10.521Z,1.39
2018-12-19T18:05:44.976Z,1.43
2018-12-19T18:08:23.366Z,1.28
2018-12-19T18:11:01.666Z,1.24
2018-12-19T18:13:36.438Z,1.20
2018-12-19T18:16:13.301Z,1.25
2018-12-19T18:18:51.745Z,1.22
2018-12-19T18:21:27.596Z,1.16
2018-12-19T18:24:22.080Z,1.17
2018-12-19T18:26:58.818Z,1.14
2018-12-19T18:29:31.485Z,1.12
2018-12-19T18:32:06.990Z,0.98
2018-12-19T18:34:39.759Z,1.00
2018-12-19T18:37:10.722Z,0.90
2018-12-19T18:39:43.965Z,0.92
2018-12-19T18:42:17.634Z,0.90
2018-12-19T18:44:50.856Z,0.84
2018-12-19T18:47:23.342Z,0.86
2018-12-19T18:49:59.801Z,0.88
2018-12-19T18:52:32.999Z,0.85
2018-12-19T18:55:05.500Z,0.87
2018-12-19T18:57:36.270Z,0.85
2018-12-19T19:00:10.384Z,0.78
2018-12-19T19:02:43.297Z,0.82
2018-12-19T19:05:16.492Z,0.77
2018-12-19T19:07:49.347Z,0.80
2018-12-19T19:10:22.439Z,0.73
2018-12-19T19:12:53.335Z,0.58
2018-12-19T19:15:30.230Z,0.57
2018-12-19T19:18:02.301Z,0.53
2018-12-19T19:20:35.453Z,0.54
2018-12-19T19:23:07.617Z,0.51
2018-12-19T19:25:44.914Z,0.57
2018-12-19T19:28:17.253Z,0.54
2018-12-19T19:30:49.655Z,0.49
2018-12-19T19:33:22.642Z,0.43
2018-12-19T19:35:54.420Z,0.47
2018-12-19T19:38:31.477Z,0.48
2018-12-19T19:41:07.598Z,0.52
2018-12-19T19:43:41.522Z,0.52
2018-12-19T19:46:18.095Z,0.53
2018-12-19T19:48:51.848Z,0.58
2018-12-19T19:51:29.248Z,0.63
2018-12-19T19:54:03.217Z,0.60
2018-12-19T19:56:35.717Z,0.56
2018-12-19T19:59:08.734Z,0.55
2018-12-19T20:01:45.854Z,0.55
2018-12-19T20:04:22.996Z,0.56
2018-12-19T20:07:00.840Z,0.53
2018-12-19T20:09:31.752Z,0.52
2018-12-19T20:12:04.755Z,0.51
2018-12-19T20:14:38.148Z,0.49
2018-12-19T20:17:21.909Z,0.44
2018-12-19T20:19:55.256Z,0.38
2018-12-19T20:22:28.619Z,0.38
2018-12-19T20:25:05.526Z,0.38
2018-12-19T20:27:35.721Z,0.32
2018-12-19T20:30:11.729Z,0.29
2018-12-19T20:32:45.454Z,0.25
2018-12-19T20:35:22.112Z,0.29
2018-12-19T20:37:55.089Z,0.28
2018-12-19T20:40:27.737Z,0.26
2018-12-19T20:43:06.559Z,0.26
2018-12-19T20:45:38.317Z,0.26
2018-12-19T20:48:10.609Z,0.22
2018-12-19T20:50:44.603Z,0.23
2018-12-19T20:53:18.115Z,0.14
2018-12-19T20:55:55.007Z,0.17
2018-12-19T20:58:27.129Z,0.16
2018-12-19T21:01:00.040Z,0.15
2018-12-19T21:03:34.503Z,0.18
2018-12-19T21:06:10.927Z,0.20
2018-12-19T21:08:48.163Z,0.19
2018-12-19T21:11:20.355Z,0.18
2018-12-19T21:13:53.828Z,0.22
2018-12-19T21:16:32.096Z,0.16
2018-12-19T21:19:04.686Z,0.12
2018-12-19T21:21:37.678Z,0.07
2018-12-19T21:24:11.024Z,0.05
2018-12-19T21:26:43.521Z,0.07
2018-12-19T21:29:16.566Z,0.10
2018-12-19T21:31:53.483Z,0.14
2018-12-19T21:34:26.807Z,0.05
2018-12-19T21:37:00.146Z,0.03
2018-12-19T21:39:33.264Z,0.01
2018-12-19T21:42:11.125Z,0.03
2018-12-19T21:44:43.324Z,0.02
2018-12-19T21:47:15.153Z,0.04
2018-12-19T21:49:47.565Z,-0.01
2018-12-19T21:52:25.818Z,-0.03
2018-12-19T21:55:00.037Z,-0.02
2018-12-19T21:57:32.927Z,-0.05
2018-12-19T22:00:12.198Z,-0.10
2018-12-19T22:02:46.735Z,-0.12
2018-12-19T22:05:19.726Z,-0.15
2018-12-19T22:07:53.934Z,-0.19
2018-12-19T22:10:31.186Z,-0.22
2018-12-19T22:13:04.377Z,-0.14
2018-12-19T22:15:37.561Z,-0.23
2018-12-19T22:18:14.009Z,-0.19
2018-12-19T22:20:46.984Z,-0.23
2018-12-19T22:23:19.204Z,-0.22
2018-12-19T22:25:51.595Z,-0.19
2018-12-19T22:28:23.041Z,-0.23
2018-12-19T22:30:54.925Z,-0.25
2018-12-19T22:33:27.507Z,-0.25
2018-12-19T22:36:00.525Z,-0.23
2018-12-19T22:38:33.342Z,-0.24
2018-12-19T22:41:10.354Z,-0.20
2018-12-19T22:43:45.050Z,-0.20
2018-12-19T22:46:21.643Z,-0.19
2018-12-19T22:48:58.056Z,-0.17
2018-12-19T22:51:31.764Z,-0.16
2018-12-19T22:54:08.861Z,-0.17
2018-12-19T22:56:46.049Z,-0.25
2018-12-19T22:59:19.185Z,-0.30
2018-12-19T23:02:01.088Z,-0.34
2018-12-19T23:04:33.527Z,-0.25
2018-12-19T23:07:09.968Z,-0.24
2018-12-19T23:09:43.028Z,-0.24
2018-12-19T23:12:19.590Z,-0.23
2018-12-19T23:14:57.033Z,-0.16
2018-12-19T23:17:39.863Z,-0.12
2018-12-19T23:20:16.784Z,-0.11
2018-12-19T23:22:55.849Z,-0.16
2018-12-19T23:25:38.055Z,-0.28
2018-12-19T23:28:18.388Z,-0.29
2018-12-19T23:30:55.306Z,-0.29
2018-12-19T23:33:28.590Z,-0.32
2018-12-19T23:36:00.944Z,-0.28
2018-12-19T23:38:34.023Z,-0.26
2018-12-19T23:41:11.176Z,-0.31
2018-12-19T23:43:44.334Z,-0.25
2018-12-19T23:46:17.577Z,-0.31
2018-12-19T23:48:50.801Z,-0.41
2018-12-19T23:51:23.884Z,-0.45
2018-12-19T23:54:00.932Z,-0.43
2018-12-19T23:56:38.357Z,-0.40
2018-12-19T23:59:18.339Z,-0.40
